Hauptseite
METAR-TAF:

METAR-TAF

Flughäfen :

Port Meadville Airport

Meadville, Pennsylvania, Vereinigte Staaten

Breite: 41-37-35N, Länge: 080-12-53W, Höhe: 427 m

Beobachtung

Neuester Wetterbericht von vor 42 Minuten, um 20:53 UTC
Wind 10 kt aus Süd
Temperatur 9°C
Luftfeuchtigkeit 93%
Luftdruck 1000 hPa
Sichtweite: 16.1 km
Durchbrochene Bewölkung in der Höhe von 900 ft
Geschlossene Wolkendecke in der Höhe von 1400 ft
Regen

METAR: KGKJ 092053Z AUTO 19010KT 10SM RA BKN009 OVC014 09/08 A2954 RMK AO2 CIG 006V013 SLP005 P0006 60017 T00940083 56025 TSNO

Zeit: 16:35 (21:35 UTC)


TAF: fehlend

Wetterbeobachtungen und Prognosen von mehr als 4000 Flughäfen (METAR und TAF Bericht).

Die verfügbaren Stationen werden durch gelbe und rote Markierungen auf der Karte dargestellt.

Führen Sie die Maus auf sie, um den Namen der Station zu sehen.

Darauf klicken, um die Beobachtung von Wetterbeobachtungen und Prognosen zu sehen.

Um die Karte zu ändern : klicken Sie auf den grünen Tasten mit einem schwarzen Kreuz Zum Vergrößern, auf den grünen Button mit einem Gedankenstrich zu verkleinern, oder auf die grünen Pfeile für benachbarte Karten.


METAR-TAF: